createdAt,value
2023-02-22T00:01:37.881Z,43.05
2023-02-22T00:04:17.634Z,41.25
2023-02-22T00:06:45.327Z,40.42
2023-02-22T00:09:11.758Z,37.00
2023-02-22T00:11:38.600Z,41.25
2023-02-22T00:14:05.207Z,38.92
2023-02-22T00:16:31.773Z,42.88
2023-02-22T00:18:58.383Z,43.50
2023-02-22T00:21:24.810Z,44.65
2023-02-22T00:23:54.547Z,44.30
2023-02-22T00:26:23.274Z,42.40
2023-02-22T00:28:52.391Z,38.85
2023-02-22T00:31:19.791Z,39.28
2023-02-22T00:33:46.663Z,36.63
2023-02-22T00:36:13.680Z,36.13
2023-02-22T00:38:40.961Z,39.13
2023-02-22T00:41:07.811Z,37.30
2023-02-22T00:43:34.848Z,39.00
2023-02-22T00:46:01.356Z,37.05
2023-02-22T00:48:28.373Z,38.22
2023-02-22T00:50:55.278Z,38.63
2023-02-22T00:53:23.651Z,37.85
2023-02-22T00:55:50.496Z,37.38
2023-02-22T00:58:16.942Z,37.70
2023-02-22T01:00:43.612Z,34.72
2023-02-22T01:03:12.976Z,38.15
2023-02-22T01:05:39.378Z,37.30
2023-02-22T01:08:08.712Z,39.38
2023-02-22T01:10:36.295Z,38.10
2023-02-22T01:13:08.428Z,39.13
2023-02-22T01:15:36.511Z,36.20
2023-02-22T01:18:05.056Z,37.38
2023-02-22T01:20:32.148Z,34.60
2023-02-22T01:23:00.486Z,36.22
2023-02-22T01:25:29.195Z,33.85
2023-02-22T01:27:56.353Z,38.83
2023-02-22T01:30:28.344Z,32.10
2023-02-22T01:32:55.696Z,35.83
2023-02-22T01:35:27.785Z,33.38
2023-02-22T01:37:54.481Z,35.90
2023-02-22T01:40:24.219Z,32.60
2023-02-22T01:42:58.821Z,33.13
2023-02-22T01:45:32.568Z,32.42
2023-02-22T01:48:11.052Z,34.65
2023-02-22T01:51:10.619Z,31.40
2023-02-22T01:53:41.818Z,32.47
2023-02-22T01:56:08.630Z,30.83
2023-02-22T01:58:36.441Z,31.40
2023-02-22T02:01:03.169Z,29.42
2023-02-22T02:03:31.073Z,31.83
2023-02-22T02:05:59.916Z,30.58
2023-02-22T02:08:42.372Z,32.90
2023-02-22T02:13:36.185Z,27.23
2023-02-22T02:16:02.648Z,29.27
2023-02-22T02:18:29.416Z,29.85
2023-02-22T02:21:27.025Z,29.05
2023-02-22T02:24:12.336Z,31.10
2023-02-22T02:27:09.046Z,30.42
2023-02-22T02:30:01.935Z,28.80
2023-02-22T02:32:47.129Z,28.63
2023-02-22T02:35:21.556Z,27.70
2023-02-22T02:38:12.782Z,30.10
2023-02-22T02:40:43.703Z,29.90
2023-02-22T02:43:25.706Z,28.63
2023-02-22T02:45:58.784Z,29.92
2023-02-22T02:48:28.083Z,28.05
2023-02-22T02:50:57.286Z,28.60
2023-02-22T02:53:27.708Z,30.15
2023-02-22T02:55:54.147Z,28.38
2023-02-22T02:58:22.993Z,30.10
2023-02-22T03:00:52.735Z,33.90
2023-02-22T03:03:37.412Z,30.67
2023-02-22T03:06:32.898Z,29.08
2023-02-22T03:09:06.488Z,31.13
2023-02-22T03:11:41.304Z,31.15
2023-02-22T03:14:24.849Z,33.15
2023-02-22T03:17:07.386Z,31.15
2023-02-22T03:22:26.276Z,31.67
2023-02-22T03:24:59.125Z,31.83
2023-02-22T03:27:36.747Z,32.42
2023-02-22T03:30:08.062Z,31.15
2023-02-22T03:32:39.349Z,35.42
2023-02-22T03:35:09.000Z,30.33
2023-02-22T03:37:39.946Z,34.53
2023-02-22T03:40:16.846Z,33.17
2023-02-22T03:42:47.308Z,33.28
2023-02-22T03:45:15.927Z,30.92
2023-02-22T03:47:46.033Z,32.42
2023-02-22T03:52:44.351Z,32.22
2023-02-22T03:55:12.062Z,34.75
2023-02-22T03:57:41.735Z,36.33
2023-02-22T04:00:14.474Z,39.42
2023-02-22T04:02:41.411Z,35.63
2023-02-22T04:05:08.132Z,39.70
2023-02-22T04:07:34.577Z,34.50
2023-02-22T04:10:02.822Z,35.00
2023-02-22T04:12:29.333Z,35.65
2023-02-22T04:14:55.763Z,33.80
2023-02-22T04:17:22.146Z,35.60
2023-02-22T04:19:48.557Z,35.90
2023-02-22T04:22:14.934Z,39.40
2023-02-22T04:24:41.387Z,37.20
2023-02-22T04:27:08.860Z,41.13
2023-02-22T04:29:35.273Z,36.85
2023-02-22T04:32:01.661Z,37.80
2023-02-22T04:34:28.066Z,36.53
2023-02-22T04:36:54.496Z,36.17
2023-02-22T04:39:20.952Z,39.58
2023-02-22T04:41:47.564Z,37.22
2023-02-22T04:44:14.214Z,38.63
2023-02-22T04:46:40.689Z,39.72
2023-02-22T04:49:07.281Z,40.30
2023-02-22T04:51:33.857Z,37.83
2023-02-22T04:54:00.433Z,44.88
2023-02-22T04:56:27.138Z,39.00
2023-02-22T04:58:53.529Z,39.97
2023-02-22T05:01:20.000Z,39.67
2023-02-22T05:03:46.465Z,43.45
2023-02-22T05:06:12.982Z,44.65
2023-02-22T05:08:39.448Z,41.10
2023-02-22T05:11:06.380Z,43.58
2023-02-22T05:13:32.887Z,41.10
2023-02-22T05:15:59.386Z,41.08
2023-02-22T05:18:25.882Z,45.83
2023-02-22T05:20:52.494Z,43.30
2023-02-22T05:23:18.887Z,39.60
2023-02-22T05:25:45.932Z,43.75
2023-02-22T05:28:14.563Z,42.60
2023-02-22T05:30:41.408Z,44.25
2023-02-22T05:33:09.001Z,43.88
2023-02-22T05:35:36.994Z,46.08
2023-02-22T05:38:04.210Z,47.78
2023-02-22T05:40:30.979Z,44.92
2023-02-22T05:42:58.091Z,41.42
2023-02-22T05:45:26.298Z,47.10
2023-02-22T05:47:53.931Z,45.42
2023-02-22T05:50:20.935Z,43.00
2023-02-22T05:52:48.658Z,46.92
2023-02-22T05:55:17.723Z,43.88
2023-02-22T05:57:44.529Z,44.53
2023-02-22T06:00:16.440Z,51.38
2023-02-22T06:02:42.817Z,46.95
2023-02-22T06:05:09.273Z,44.95
2023-02-22T06:07:35.721Z,40.50
2023-02-22T06:10:02.157Z,50.17
2023-02-22T06:12:28.549Z,47.67
2023-02-22T06:14:55.021Z,51.65
2023-02-22T06:17:21.414Z,54.67
2023-02-22T06:19:47.828Z,49.88
2023-02-22T06:22:18.837Z,53.58
2023-02-22T06:24:45.256Z,52.40
2023-02-22T06:27:11.702Z,48.97
2023-02-22T06:29:38.467Z,53.83
2023-02-22T06:32:05.252Z,51.58
2023-02-22T06:34:31.715Z,51.55
2023-02-22T06:37:00.008Z,57.88
2023-02-22T06:39:26.600Z,52.67
2023-02-22T06:41:55.174Z,65.35
2023-02-22T06:44:21.873Z,55.10
2023-02-22T06:46:51.058Z,55.63
2023-02-22T06:49:18.765Z,57.13
2023-02-22T06:51:45.577Z,55.38
2023-02-22T06:54:12.162Z,60.25
2023-02-22T06:56:38.575Z,57.45
2023-02-22T06:59:04.978Z,57.65
2023-02-22T07:01:31.449Z,54.45
2023-02-22T07:03:57.973Z,57.72
2023-02-22T07:06:24.450Z,60.75
2023-02-22T07:08:50.957Z,57.17
2023-02-22T07:11:17.997Z,61.47
2023-02-22T07:13:44.624Z,61.30
2023-02-22T07:16:11.109Z,57.97
2023-02-22T07:18:37.559Z,60.05
2023-02-22T07:21:04.274Z,62.83
2023-02-22T07:23:30.689Z,58.38
2023-02-22T07:26:01.037Z,62.42
2023-02-22T07:28:27.447Z,56.47
2023-02-22T07:30:54.066Z,60.20
2023-02-22T07:33:20.552Z,58.13
2023-02-22T07:35:49.300Z,61.72
2023-02-22T07:38:17.337Z,63.22
2023-02-22T07:40:44.237Z,59.95
2023-02-22T07:43:17.264Z,61.03
2023-02-22T07:45:44.086Z,61.53
2023-02-22T07:48:12.421Z,55.22
2023-02-22T07:50:39.408Z,52.70
2023-02-22T07:53:10.979Z,54.92
2023-02-22T07:55:37.440Z,49.50
2023-02-22T07:58:06.581Z,54.97
2023-02-22T08:00:39.239Z,53.92
2023-02-22T08:03:08.430Z,53.85
2023-02-22T08:05:36.778Z,51.63
2023-02-22T08:08:04.319Z,52.90
2023-02-22T08:10:31.002Z,51.15
2023-02-22T08:12:57.661Z,56.67
2023-02-22T08:15:29.578Z,55.42
2023-02-22T08:17:56.982Z,60.22
2023-02-22T08:20:24.157Z,56.53
2023-02-22T08:22:51.025Z,50.97
2023-02-22T08:25:18.892Z,49.42
2023-02-22T08:27:45.365Z,52.85
2023-02-22T08:30:17.948Z,45.65
2023-02-22T08:32:46.172Z,46.67
2023-02-22T08:35:14.303Z,49.20
2023-02-22T08:37:45.120Z,45.95
2023-02-22T08:40:14.716Z,46.42
2023-02-22T08:42:41.399Z,48.00
2023-02-22T08:45:08.300Z,47.95
2023-02-22T08:47:34.696Z,45.65
2023-02-22T08:50:01.282Z,46.65
2023-02-22T08:52:27.658Z,43.72
2023-02-22T08:54:54.077Z,42.15
2023-02-22T08:57:21.720Z,40.88
2023-02-22T08:59:48.643Z,40.60
2023-02-22T09:02:16.863Z,38.25
2023-02-22T09:04:43.728Z,37.40
2023-02-22T09:07:10.880Z,38.80
2023-02-22T09:09:37.336Z,38.40
2023-02-22T09:12:04.148Z,39.85
2023-02-22T09:14:30.693Z,35.40
2023-02-22T09:16:57.454Z,38.75
2023-02-22T09:19:25.029Z,37.00
2023-02-22T09:22:00.622Z,38.10
2023-02-22T09:24:27.589Z,35.85
2023-02-22T09:26:54.136Z,35.58
2023-02-22T09:29:25.654Z,37.45
2023-02-22T09:31:54.715Z,35.35
2023-02-22T09:34:29.433Z,39.28
2023-02-22T09:36:57.491Z,35.78
2023-02-22T09:39:24.459Z,34.72
2023-02-22T09:41:59.106Z,35.15
2023-02-22T09:44:36.203Z,34.80
2023-02-22T09:47:04.852Z,35.38
2023-02-22T09:49:38.102Z,31.98
2023-02-22T09:52:18.817Z,33.25
2023-02-22T09:54:53.738Z,31.60
2023-02-22T09:57:25.985Z,31.52
2023-02-22T10:00:01.157Z,34.80
2023-02-22T10:02:32.334Z,33.95
2023-02-22T10:05:14.115Z,35.10
2023-02-22T10:07:46.612Z,33.40
2023-02-22T10:10:22.226Z,36.00
2023-02-22T10:13:06.122Z,32.55
2023-02-22T10:15:47.843Z,34.25
2023-02-22T10:18:32.784Z,33.13
2023-02-22T10:21:31.539Z,33.97
2023-02-22T10:24:13.061Z,31.88
2023-02-22T10:26:44.422Z,32.35
2023-02-22T10:29:22.033Z,33.67
2023-02-22T10:32:12.246Z,32.28
2023-02-22T10:34:44.197Z,28.00
2023-02-22T10:37:34.046Z,31.98
2023-02-22T10:40:22.831Z,28.58
2023-02-22T10:42:49.997Z,31.23
2023-02-22T10:45:29.910Z,31.67
2023-02-22T10:47:59.082Z,35.67
2023-02-22T10:50:30.892Z,34.00
2023-02-22T10:52:57.594Z,30.30
2023-02-22T10:55:24.052Z,31.25
2023-02-22T10:57:51.976Z,34.22
2023-02-22T11:00:29.696Z,29.27
2023-02-22T11:02:57.620Z,33.58
2023-02-22T11:05:32.973Z,31.05
2023-02-22T11:08:14.978Z,30.38
2023-02-22T11:10:43.328Z,30.15
2023-02-22T11:13:28.576Z,30.95
2023-02-22T11:16:26.234Z,30.80
2023-02-22T11:19:03.853Z,30.23
2023-02-22T11:21:32.259Z,30.08
2023-02-22T11:24:04.299Z,33.83
2023-02-22T11:26:40.948Z,31.67
2023-02-22T11:29:25.687Z,30.65
2023-02-22T11:31:52.553Z,28.88
2023-02-22T11:34:35.113Z,32.92
2023-02-22T11:37:23.345Z,30.00
2023-02-22T11:40:05.229Z,27.73
2023-02-22T11:42:31.616Z,28.02
2023-02-22T11:45:13.355Z,28.00
2023-02-22T11:48:00.954Z,27.17
2023-02-22T11:50:46.512Z,28.13
2023-02-22T11:53:32.281Z,27.15
2023-02-22T11:56:10.928Z,28.55
2023-02-22T11:58:50.438Z,28.20
2023-02-22T12:01:23.635Z,27.10
2023-02-22T12:04:03.177Z,30.10
2023-02-22T12:06:40.175Z,31.55
2023-02-22T12:09:13.905Z,28.38
2023-02-22T12:12:11.894Z,26.25
2023-02-22T12:14:55.431Z,27.73
2023-02-22T12:17:35.007Z,31.25
2023-02-22T12:20:13.271Z,26.52
2023-02-22T12:22:46.803Z,28.17
2023-02-22T12:25:20.614Z,27.23
2023-02-22T12:27:54.388Z,26.55
2023-02-22T12:30:34.146Z,29.15
2023-02-22T12:33:06.197Z,28.35
2023-02-22T12:35:34.821Z,30.63
2023-02-22T12:38:14.819Z,29.52
2023-02-22T12:40:56.960Z,33.38
2023-02-22T12:43:36.626Z,27.27
2023-02-22T12:46:18.046Z,30.92
2023-02-22T12:48:53.775Z,32.75
2023-02-22T12:51:26.123Z,27.88
2023-02-22T12:54:02.248Z,27.85
2023-02-22T12:59:03.683Z,28.77
2023-02-22T13:01:37.839Z,29.55
2023-02-22T13:04:19.350Z,28.13
2023-02-22T13:07:05.600Z,31.25
2023-02-22T13:09:31.896Z,30.63
2023-02-22T13:12:18.651Z,29.67
2023-02-22T13:15:09.234Z,28.67
2023-02-22T13:17:41.993Z,30.95
2023-02-22T13:20:18.456Z,34.72
2023-02-22T13:22:44.834Z,31.35
2023-02-22T13:25:22.259Z,30.42
2023-02-22T13:28:13.170Z,29.20
2023-02-22T13:31:02.844Z,30.73
2023-02-22T13:33:54.293Z,33.53
2023-02-22T13:36:37.560Z,29.52
2023-02-22T13:39:33.202Z,29.67
2023-02-22T13:42:09.954Z,29.98
2023-02-22T13:44:44.932Z,30.77
2023-02-22T13:47:26.498Z,28.88
2023-02-22T13:50:18.001Z,26.98
2023-02-22T13:52:45.009Z,29.80
2023-02-22T13:55:34.403Z,31.67
2023-02-22T13:58:06.746Z,28.60
2023-02-22T14:00:44.529Z,29.48
2023-02-22T14:03:13.992Z,33.50
2023-02-22T14:05:44.698Z,28.73
2023-02-22T14:08:13.886Z,32.22
2023-02-22T14:10:43.308Z,29.15
2023-02-22T14:13:10.611Z,28.15
2023-02-22T14:15:37.193Z,32.15
2023-02-22T14:18:07.267Z,27.15
2023-02-22T14:20:38.162Z,28.88
2023-02-22T14:23:23.294Z,29.35
2023-02-22T14:25:50.534Z,28.52
2023-02-22T14:28:52.455Z,29.42
2023-02-22T14:31:43.592Z,27.65
2023-02-22T14:34:12.144Z,27.27
2023-02-22T14:36:54.770Z,30.95
2023-02-22T14:39:32.254Z,29.88
2023-02-22T14:42:10.611Z,28.30
2023-02-22T14:44:41.888Z,29.65
2023-02-22T14:47:22.688Z,27.15
2023-02-22T14:49:51.093Z,27.73
2023-02-22T14:52:22.042Z,30.60
2023-02-22T14:55:14.043Z,31.83
2023-02-22T14:57:43.638Z,31.08
2023-02-22T15:00:30.717Z,29.00
2023-02-22T15:02:59.523Z,26.90
2023-02-22T15:05:30.403Z,31.58
2023-02-22T15:08:00.115Z,27.15
2023-02-22T15:10:30.685Z,25.98
2023-02-22T15:13:09.520Z,30.00
2023-02-22T15:15:49.332Z,29.98
2023-02-22T15:18:23.568Z,24.60
2023-02-22T15:20:56.115Z,29.23
2023-02-22T15:23:26.805Z,26.58
2023-02-22T15:25:54.082Z,29.27
2023-02-22T15:28:23.383Z,27.65
2023-02-22T15:30:50.016Z,26.25
2023-02-22T15:33:24.274Z,24.63
2023-02-22T15:35:57.778Z,25.20
2023-02-22T15:38:29.652Z,24.95
2023-02-22T15:41:04.201Z,25.63
2023-02-22T15:43:32.221Z,23.70
2023-02-22T15:45:59.815Z,25.42
2023-02-22T15:48:27.108Z,27.30
2023-02-22T15:51:06.550Z,28.75
2023-02-22T15:53:43.267Z,24.65
2023-02-22T15:56:14.200Z,26.38
2023-02-22T15:58:41.483Z,26.08
2023-02-22T16:01:16.578Z,24.70
2023-02-22T16:03:47.054Z,25.33
2023-02-22T16:06:33.742Z,23.08
2023-02-22T16:09:02.499Z,27.52
2023-02-22T16:11:39.889Z,22.95
2023-02-22T16:14:23.596Z,25.35
2023-02-22T16:16:50.439Z,28.58
2023-02-22T16:19:31.378Z,29.88
2023-02-22T16:22:04.866Z,24.80
2023-02-22T16:24:36.199Z,24.98
2023-02-22T16:27:15.870Z,26.10
2023-02-22T16:29:43.452Z,26.55
2023-02-22T16:32:09.983Z,26.48
2023-02-22T16:34:36.627Z,27.50
2023-02-22T16:37:03.224Z,30.10
2023-02-22T16:39:31.540Z,27.15
2023-02-22T16:41:59.465Z,27.55
2023-02-22T16:44:26.686Z,29.08
2023-02-22T16:46:54.000Z,36.25
2023-02-22T16:49:20.758Z,30.13
2023-02-22T16:51:54.650Z,31.77
2023-02-22T16:54:26.792Z,31.85
2023-02-22T16:56:54.962Z,32.28
2023-02-22T16:59:21.569Z,32.25
2023-02-22T17:01:48.071Z,32.28
2023-02-22T17:04:18.022Z,33.33
2023-02-22T17:09:11.096Z,32.38
2023-02-22T17:11:38.215Z,30.80
2023-02-22T17:14:05.221Z,34.92
2023-02-22T17:16:31.626Z,37.38
2023-02-22T17:18:59.123Z,40.83
2023-02-22T17:21:25.523Z,39.78
2023-02-22T17:23:51.921Z,42.92
2023-02-22T17:26:18.562Z,47.13
2023-02-22T17:28:45.261Z,49.00
2023-02-22T17:31:19.752Z,50.20
2023-02-22T17:33:46.318Z,58.78
2023-02-22T17:36:13.297Z,54.65
2023-02-22T17:38:41.656Z,59.55
2023-02-22T17:41:08.259Z,55.90
2023-02-22T17:43:35.144Z,59.30
2023-02-22T17:46:07.767Z,58.42
2023-02-22T17:48:34.892Z,59.05
2023-02-22T17:51:08.878Z,61.90
2023-02-22T17:53:35.495Z,58.83
2023-02-22T17:56:07.137Z,60.30
2023-02-22T17:58:34.274Z,61.05
2023-02-22T18:01:01.169Z,64.75
2023-02-22T18:03:29.061Z,60.13
2023-02-22T18:05:58.127Z,56.45
2023-02-22T18:08:26.724Z,56.03
2023-02-22T18:10:56.445Z,59.53
2023-02-22T18:13:25.602Z,59.85
2023-02-22T18:15:52.371Z,54.67
2023-02-22T18:18:19.793Z,53.83
2023-02-22T18:20:51.302Z,54.63
2023-02-22T18:23:20.919Z,57.20
2023-02-22T18:26:08.966Z,53.08
2023-02-22T18:31:15.033Z,55.83
2023-02-22T18:33:46.627Z,60.03
2023-02-22T18:36:21.418Z,53.20
2023-02-22T18:38:48.653Z,57.00
2023-02-22T18:41:17.546Z,57.85
2023-02-22T18:43:46.332Z,60.90
2023-02-22T18:46:14.357Z,59.00
2023-02-22T18:48:48.878Z,61.08
2023-02-22T18:51:17.276Z,63.35
2023-02-22T18:53:47.106Z,68.30
2023-02-22T18:58:45.166Z,65.85
2023-02-22T19:01:17.341Z,67.50
2023-02-22T19:03:46.988Z,67.28
2023-02-22T19:06:14.349Z,68.00
2023-02-22T19:08:42.961Z,70.75
2023-02-22T19:11:17.621Z,71.35
2023-02-22T19:13:47.840Z,72.60
2023-02-22T19:16:16.722Z,68.95
2023-02-22T19:18:44.121Z,70.45
2023-02-22T19:21:12.556Z,74.55
2023-02-22T19:23:45.838Z,74.32
2023-02-22T19:26:13.731Z,67.97
2023-02-22T19:28:40.188Z,72.15
2023-02-22T19:31:16.209Z,71.28
2023-02-22T19:36:10.088Z,73.57
2023-02-22T19:38:36.708Z,69.90
2023-02-22T19:41:10.089Z,70.68
2023-02-22T19:43:37.667Z,74.45
2023-02-22T19:46:06.289Z,68.40
2023-02-22T19:48:32.933Z,73.30
2023-02-22T19:51:07.717Z,72.35
2023-02-22T19:53:35.414Z,70.90
2023-02-22T19:56:06.866Z,79.57
2023-02-22T19:58:36.611Z,65.78
2023-02-22T20:01:11.710Z,72.38
2023-02-22T20:03:38.724Z,68.53
2023-02-22T20:06:09.034Z,70.82
2023-02-22T20:08:37.159Z,60.70
2023-02-22T20:11:04.982Z,67.05
2023-02-22T20:13:32.894Z,66.75
2023-02-22T20:15:59.703Z,62.95
2023-02-22T20:18:26.077Z,66.13
2023-02-22T20:20:52.487Z,71.22
2023-02-22T20:23:19.016Z,66.60
2023-02-22T20:25:55.224Z,61.92
2023-02-22T20:30:51.350Z,62.72
2023-02-22T20:33:18.930Z,59.85
2023-02-22T20:35:46.628Z,61.72
2023-02-22T20:38:19.192Z,66.93
2023-02-22T20:40:46.800Z,60.45
2023-02-22T20:43:13.383Z,71.05
2023-02-22T20:45:39.807Z,70.55
2023-02-22T20:48:06.396Z,74.53
2023-02-22T20:50:35.005Z,72.03
2023-02-22T20:53:01.435Z,68.38
2023-02-22T20:55:27.836Z,64.78
2023-02-22T20:57:54.356Z,66.05
2023-02-22T21:00:20.837Z,72.97
2023-02-22T21:02:47.319Z,70.05
2023-02-22T21:05:13.857Z,70.18
2023-02-22T21:07:40.394Z,66.63
2023-02-22T21:10:07.024Z,71.38
2023-02-22T21:12:34.987Z,66.85
2023-02-22T21:15:01.488Z,67.03
2023-02-22T21:17:30.786Z,63.30
2023-02-22T21:19:58.389Z,73.80
2023-02-22T21:22:25.259Z,80.15
2023-02-22T21:24:52.307Z,71.60
2023-02-22T21:27:18.850Z,80.95
2023-02-22T21:29:45.471Z,70.53
2023-02-22T21:32:13.607Z,70.38
2023-02-22T21:34:40.299Z,68.35
2023-02-22T21:37:08.213Z,74.47
2023-02-22T21:39:35.428Z,73.50
2023-02-22T21:42:02.418Z,74.75
2023-02-22T21:44:29.439Z,81.07
2023-02-22T21:46:55.863Z,74.60
2023-02-22T21:49:23.126Z,76.63
2023-02-22T21:51:51.599Z,72.15
2023-02-22T21:54:18.139Z,74.00
2023-02-22T21:56:44.658Z,79.50
2023-02-22T21:59:26.238Z,82.07
2023-02-22T22:01:55.754Z,81.75
2023-02-22T22:04:28.374Z,73.75
2023-02-22T22:06:56.789Z,76.72
2023-02-22T22:09:23.695Z,82.97
2023-02-22T22:11:58.188Z,71.18
2023-02-22T22:14:26.055Z,70.13
2023-02-22T22:17:00.091Z,77.88
2023-02-22T22:19:31.155Z,83.88
2023-02-22T22:21:58.121Z,79.80
2023-02-22T22:24:25.246Z,75.70
2023-02-22T22:26:54.935Z,78.63
2023-02-22T22:29:28.271Z,81.40
2023-02-22T22:31:54.838Z,76.47
2023-02-22T22:34:24.246Z,71.05
2023-02-22T22:36:50.790Z,68.35
2023-02-22T22:39:20.824Z,73.88
2023-02-22T22:44:16.114Z,63.60
2023-02-22T22:46:43.252Z,73.47
2023-02-22T22:49:11.928Z,77.25
2023-02-22T22:51:40.918Z,73.22
2023-02-22T22:54:09.424Z,70.10
2023-02-22T22:56:37.809Z,74.35
2023-02-22T22:59:10.437Z,73.85
2023-02-22T23:01:40.385Z,66.72
2023-02-22T23:04:10.593Z,68.80
2023-02-22T23:06:42.902Z,73.03
2023-02-22T23:09:14.672Z,69.65
2023-02-22T23:11:44.395Z,67.97
2023-02-22T23:14:21.748Z,65.45
2023-02-22T23:16:49.927Z,74.75
2023-02-22T23:19:16.635Z,87.53
2023-02-22T23:21:44.011Z,76.15
2023-02-22T23:24:15.155Z,80.47
2023-02-22T23:26:42.271Z,72.85
2023-02-22T23:29:09.750Z,82.10
2023-02-22T23:31:39.546Z,78.40
2023-02-22T23:34:10.975Z,69.93
2023-02-22T23:36:44.261Z,85.82
2023-02-22T23:39:15.690Z,76.47
2023-02-22T23:41:42.438Z,86.70
2023-02-22T23:44:17.351Z,84.35
2023-02-22T23:46:47.890Z,84.72
2023-02-22T23:49:20.072Z,82.47
2023-02-22T23:51:46.823Z,88.85
2023-02-22T23:54:21.269Z,77.13
2023-02-22T23:56:56.332Z,83.88
2023-02-22T23:59:24.780Z,85.38
